createdAt,value
2024-03-04T00:00:57.127Z,59.12
2024-03-04T00:01:57.140Z,61.40
2024-03-04T00:02:57.211Z,60.79
2024-03-04T00:03:57.390Z,59.21
2024-03-04T00:04:57.245Z,61.86
2024-03-04T00:05:57.270Z,61.20
2024-03-04T00:06:57.299Z,61.27
2024-03-04T00:07:57.324Z,61.21
2024-03-04T00:08:57.373Z,60.46
2024-03-04T00:09:57.820Z,60.07
2024-03-04T00:10:57.466Z,61.08
2024-03-04T00:11:57.458Z,59.41
2024-03-04T00:12:57.538Z,58.96
2024-03-04T00:13:57.551Z,60.06
2024-03-04T00:14:57.642Z,61.05
2024-03-04T00:15:57.671Z,59.39
2024-03-04T00:16:57.673Z,59.38
2024-03-04T00:17:57.732Z,61.35
2024-03-04T00:18:57.821Z,60.12
2024-03-04T00:19:57.816Z,60.27
2024-03-04T00:20:57.851Z,59.28
2024-03-04T00:21:57.993Z,60.17
2024-03-04T00:22:57.926Z,60.90
2024-03-04T00:23:57.965Z,62.69
2024-03-04T00:24:58.074Z,61.30
2024-03-04T00:25:58.053Z,60.63
2024-03-04T00:26:58.081Z,60.99
2024-03-04T00:27:58.161Z,58.94
2024-03-04T00:28:58.177Z,59.75
2024-03-04T00:29:58.183Z,61.19
2024-03-04T00:30:58.228Z,60.02
2024-03-04T00:31:58.281Z,60.43
2024-03-04T00:32:58.377Z,59.17
2024-03-04T00:33:58.396Z,61.24
2024-03-04T00:34:58.386Z,62.33
2024-03-04T00:35:59.289Z,59.46
2024-03-04T00:36:58.456Z,61.23
2024-03-04T00:37:58.493Z,58.68
2024-03-04T00:38:58.526Z,60.15
2024-03-04T00:39:58.591Z,60.11
2024-03-04T00:40:58.589Z,59.13
2024-03-04T00:41:58.591Z,59.15
2024-03-04T00:42:58.672Z,60.65
2024-03-04T00:43:58.704Z,57.82
2024-03-04T00:44:58.720Z,58.74
2024-03-04T00:45:58.831Z,59.40
2024-03-04T00:46:58.807Z,61.20
2024-03-04T00:47:58.930Z,61.54
2024-03-04T00:48:58.944Z,58.90
2024-03-04T00:49:58.966Z,59.27
2024-03-04T00:50:59.007Z,59.71
2024-03-04T00:51:59.021Z,58.71
2024-03-04T00:52:59.053Z,56.71
2024-03-04T00:53:59.070Z,60.11
2024-03-04T00:54:59.247Z,60.14
2024-03-04T00:55:59.173Z,59.16
2024-03-04T00:56:59.202Z,58.15
2024-03-04T00:57:59.283Z,60.01
2024-03-04T00:58:59.261Z,59.61
2024-03-04T00:59:59.346Z,59.09
2024-03-04T01:00:59.455Z,59.66
2024-03-04T01:01:59.448Z,58.46
2024-03-04T01:02:59.467Z,57.97
2024-03-04T01:03:59.532Z,59.42
2024-03-04T01:04:59.532Z,59.94
2024-03-04T01:05:59.559Z,57.46
2024-03-04T01:06:59.648Z,58.83
2024-03-04T01:07:59.625Z,58.61
2024-03-04T01:08:59.638Z,57.98
2024-03-04T01:09:59.707Z,58.44
2024-03-04T01:10:59.772Z,56.36
2024-03-04T01:11:59.727Z,57.78
2024-03-04T01:12:59.784Z,59.25
2024-03-04T01:13:59.805Z,58.63
2024-03-04T01:15:00.301Z,57.20
2024-03-04T01:15:59.932Z,57.68
2024-03-04T01:16:59.957Z,58.31
2024-03-04T01:18:00.018Z,56.83
2024-03-04T01:19:00.058Z,56.85
2024-03-04T01:20:00.351Z,57.63
2024-03-04T01:21:00.078Z,56.65
2024-03-04T01:22:00.190Z,56.47
2024-03-04T01:23:00.161Z,56.57
2024-03-04T01:24:00.195Z,57.21
2024-03-04T01:25:00.337Z,57.29
2024-03-04T01:26:00.262Z,57.99
2024-03-04T01:27:00.243Z,59.53
2024-03-04T01:28:00.338Z,57.73
2024-03-04T01:29:00.328Z,58.42
2024-03-04T01:30:00.803Z,57.71
2024-03-04T01:31:00.408Z,57.50
2024-03-04T01:32:00.427Z,57.77
2024-03-04T01:33:00.471Z,58.51
2024-03-04T01:34:00.542Z,57.16
2024-03-04T01:35:00.566Z,56.86
2024-03-04T01:36:00.589Z,56.94
2024-03-04T01:37:00.603Z,56.56
2024-03-04T01:38:00.659Z,57.03
2024-03-04T01:39:00.681Z,54.42
2024-03-04T01:40:00.813Z,57.89
2024-03-04T01:41:00.783Z,57.65
2024-03-04T01:42:00.795Z,57.11
2024-03-04T01:43:00.881Z,57.58
2024-03-04T01:44:00.852Z,56.71
2024-03-04T01:45:01.319Z,57.64
2024-03-04T01:46:00.926Z,56.92
2024-03-04T01:47:00.972Z,56.64
2024-03-04T01:48:01.020Z,54.98
2024-03-04T01:49:01.028Z,57.61
2024-03-04T01:50:01.045Z,56.02
2024-03-04T01:51:01.115Z,57.17
2024-03-04T01:52:01.146Z,56.71
2024-03-04T01:53:01.172Z,54.83
2024-03-04T01:54:01.194Z,55.81
2024-03-04T01:55:01.345Z,56.21
2024-03-04T01:56:01.260Z,56.53
2024-03-04T01:57:01.294Z,56.35
2024-03-04T01:58:01.395Z,55.99
2024-03-04T01:59:01.357Z,55.21
2024-03-04T02:00:01.422Z,54.46
2024-03-04T02:01:01.515Z,55.65
2024-03-04T02:02:01.499Z,54.28
2024-03-04T02:03:01.503Z,55.26
2024-03-04T02:04:01.553Z,53.70
2024-03-04T02:05:01.840Z,54.34
2024-03-04T02:06:01.594Z,56.47
2024-03-04T02:07:01.635Z,55.31
2024-03-04T02:08:01.683Z,56.27
2024-03-04T02:09:01.669Z,53.46
2024-03-04T02:10:01.819Z,53.23
2024-03-04T02:11:01.754Z,53.57
2024-03-04T02:12:01.848Z,55.48
2024-03-04T02:13:01.855Z,55.90
2024-03-04T02:14:01.831Z,54.75
2024-03-04T02:15:02.348Z,54.16
2024-03-04T02:16:01.946Z,52.86
2024-03-04T02:17:01.932Z,53.47
2024-03-04T02:18:02.015Z,54.97
2024-03-04T02:19:02.067Z,54.41
2024-03-04T02:20:02.050Z,55.11
2024-03-04T02:21:02.040Z,52.85
2024-03-04T02:22:02.187Z,54.10
2024-03-04T02:23:02.141Z,53.57
2024-03-04T02:24:02.140Z,53.94
2024-03-04T02:25:02.393Z,53.88
2024-03-04T02:26:02.244Z,53.63
2024-03-04T02:27:02.314Z,52.72
2024-03-04T02:28:02.429Z,52.53
2024-03-04T02:29:03.322Z,52.38
2024-03-04T02:30:02.419Z,52.71
2024-03-04T02:31:02.324Z,53.31
2024-03-04T02:32:02.202Z,52.93
2024-03-04T02:33:02.220Z,52.98
2024-03-04T02:34:02.258Z,52.46
2024-03-04T02:35:02.345Z,51.96
2024-03-04T02:36:02.134Z,52.78
2024-03-04T02:37:02.124Z,54.13
2024-03-04T02:38:02.107Z,53.55
2024-03-04T02:39:02.154Z,53.06
2024-03-04T02:40:02.455Z,52.38
2024-03-04T02:41:02.224Z,52.50
2024-03-04T02:42:02.235Z,54.29
2024-03-04T02:43:02.340Z,51.75
2024-03-04T02:44:02.343Z,51.76
2024-03-04T02:45:02.858Z,50.93
2024-03-04T02:46:02.432Z,52.54
2024-03-04T02:47:02.432Z,52.75
2024-03-04T02:48:02.505Z,52.17
2024-03-04T02:49:02.532Z,53.33
2024-03-04T02:50:02.617Z,52.45
2024-03-04T02:51:02.544Z,52.39
2024-03-04T02:52:04.180Z,51.14
2024-03-04T02:53:02.613Z,52.21
2024-03-04T02:54:02.609Z,52.41
2024-03-04T02:55:02.866Z,50.09
2024-03-04T02:56:02.713Z,51.36
2024-03-04T02:57:02.751Z,53.37
2024-03-04T02:58:02.783Z,52.49
2024-03-04T02:59:02.771Z,53.13
2024-03-04T03:00:02.839Z,51.84
2024-03-04T03:01:02.994Z,54.24
2024-03-04T03:02:02.994Z,51.52
2024-03-04T03:03:02.936Z,52.40
2024-03-04T03:04:02.965Z,51.70
2024-03-04T03:05:03.071Z,50.54
2024-03-04T03:06:03.013Z,52.06
2024-03-04T03:07:03.093Z,52.16
2024-03-04T03:08:03.099Z,51.40
2024-03-04T03:09:03.132Z,52.87
2024-03-04T03:10:03.413Z,51.63
2024-03-04T03:11:03.246Z,52.23
2024-03-04T03:12:03.257Z,52.14
2024-03-04T03:13:03.338Z,54.21
2024-03-04T03:14:03.269Z,52.49
2024-03-04T03:15:03.350Z,52.64
2024-03-04T03:16:03.347Z,51.48
2024-03-04T03:17:03.398Z,52.68
2024-03-04T03:18:03.422Z,50.00
2024-03-04T03:19:03.474Z,52.18
2024-03-04T03:20:03.867Z,51.84
2024-03-04T03:21:03.532Z,51.99
2024-03-04T03:22:03.584Z,52.45
2024-03-04T03:23:03.609Z,54.16
2024-03-04T03:24:03.605Z,51.49
2024-03-04T03:25:03.695Z,51.41
2024-03-04T03:26:03.703Z,50.74
2024-03-04T03:27:03.709Z,52.85
2024-03-04T03:28:03.778Z,51.62
2024-03-04T03:29:03.774Z,51.58
2024-03-04T03:30:03.879Z,52.96
2024-03-04T03:31:03.777Z,52.12
2024-03-04T03:32:03.756Z,52.85
2024-03-04T03:33:03.834Z,53.37
2024-03-04T03:34:03.809Z,53.86
2024-03-04T03:35:03.820Z,52.27
2024-03-04T03:36:03.866Z,54.12
2024-03-04T03:37:03.950Z,52.52
2024-03-04T03:38:03.948Z,50.69
2024-03-04T03:39:03.954Z,52.92
2024-03-04T03:40:04.389Z,51.56
2024-03-04T03:41:04.021Z,51.08
2024-03-04T03:42:04.061Z,51.70
2024-03-04T03:43:04.141Z,52.56
2024-03-04T03:44:04.106Z,51.12
2024-03-04T03:45:04.378Z,52.17
2024-03-04T03:46:04.174Z,51.46
2024-03-04T03:47:04.215Z,52.42
2024-03-04T03:48:04.277Z,50.10
2024-03-04T03:49:04.287Z,52.06
2024-03-04T03:50:04.345Z,52.26
2024-03-04T03:51:04.311Z,52.68
2024-03-04T03:52:04.481Z,52.35
2024-03-04T03:53:04.418Z,52.60
2024-03-04T03:54:04.452Z,53.77
2024-03-04T03:55:04.994Z,51.79
2024-03-04T03:56:04.541Z,54.89
2024-03-04T03:57:04.549Z,54.46
2024-03-04T03:58:04.591Z,55.18
2024-03-04T03:59:04.609Z,55.03
2024-03-04T04:00:04.859Z,54.72
2024-03-04T04:01:04.762Z,54.12
2024-03-04T04:02:04.828Z,53.92
2024-03-04T04:03:04.745Z,55.13
2024-03-04T04:04:04.826Z,55.61
2024-03-04T04:05:04.805Z,54.21
2024-03-04T04:06:04.844Z,55.95
2024-03-04T04:07:04.948Z,52.70
2024-03-04T04:08:04.892Z,53.43
2024-03-04T04:09:04.944Z,54.95
2024-03-04T04:10:05.410Z,53.05
2024-03-04T04:11:04.999Z,51.45
2024-03-04T04:12:05.017Z,53.86
2024-03-04T04:13:05.156Z,53.11
2024-03-04T04:14:05.090Z,53.22
2024-03-04T04:15:05.131Z,54.11
2024-03-04T04:16:05.212Z,53.54
2024-03-04T04:17:05.226Z,52.40
2024-03-04T04:18:05.277Z,52.62
2024-03-04T04:19:05.270Z,53.18
2024-03-04T04:20:05.400Z,52.74
2024-03-04T04:21:12.549Z,50.00
2024-03-04T04:22:12.612Z,50.00
2024-03-04T04:23:12.618Z,50.00
2024-03-04T04:24:12.586Z,50.00
2024-03-04T04:25:12.635Z,50.00
2024-03-04T04:26:12.567Z,50.00
2024-03-04T04:27:12.649Z,51.33
2024-03-04T04:28:12.620Z,51.90
2024-03-04T04:29:12.601Z,50.88
2024-03-04T04:30:12.674Z,51.99
2024-03-04T04:31:19.877Z,50.00
2024-03-04T04:32:19.895Z,50.00
2024-03-04T04:33:19.862Z,50.00
2024-03-04T04:34:19.970Z,50.00
2024-03-04T04:35:19.886Z,50.00
2024-03-04T04:36:19.892Z,52.08
2024-03-04T04:37:19.884Z,51.08
2024-03-04T04:38:19.905Z,52.30
2024-03-04T04:39:19.909Z,51.67
2024-03-04T04:40:20.111Z,52.85
2024-03-04T04:41:19.929Z,51.32
2024-03-04T04:42:19.933Z,51.69
2024-03-04T04:43:19.961Z,51.54
2024-03-04T04:44:19.943Z,50.00
2024-03-04T04:45:19.993Z,51.23
2024-03-04T04:46:19.978Z,50.29
2024-03-04T04:47:19.992Z,52.71
2024-03-04T04:48:20.000Z,52.38
2024-03-04T04:49:20.376Z,53.42
2024-03-04T04:50:20.453Z,52.17
2024-03-04T04:51:20.079Z,50.30
2024-03-04T04:52:20.094Z,53.01
2024-03-04T04:53:20.091Z,52.11
2024-03-04T04:54:20.106Z,51.74
2024-03-04T04:55:20.513Z,53.07
2024-03-04T04:56:20.172Z,52.69
2024-03-04T04:57:20.174Z,52.01
2024-03-04T04:58:20.256Z,53.15
2024-03-04T04:59:20.195Z,52.41
2024-03-04T05:00:20.205Z,52.42
2024-03-04T05:01:20.230Z,50.80
2024-03-04T05:02:20.272Z,52.79
2024-03-04T05:03:33.592Z,52.40
2024-03-04T05:04:38.444Z,52.52
2024-03-04T05:05:21.543Z,52.55
2024-03-04T05:06:20.294Z,52.85
2024-03-04T05:07:20.389Z,53.36
2024-03-04T05:08:20.369Z,53.63
2024-03-04T05:09:20.316Z,54.56
2024-03-04T05:10:20.511Z,53.05
2024-03-04T05:11:20.979Z,54.40
2024-03-04T05:12:20.957Z,51.99
2024-03-04T05:13:20.396Z,54.08
2024-03-04T05:14:20.373Z,51.96
2024-03-04T05:15:20.457Z,55.20
2024-03-04T05:16:20.421Z,52.92
2024-03-04T05:17:20.417Z,53.95
2024-03-04T05:18:20.417Z,52.94
2024-03-04T05:19:20.461Z,51.37
2024-03-04T05:20:20.450Z,51.19
2024-03-04T05:21:20.457Z,52.13
2024-03-04T05:22:20.574Z,54.00
2024-03-04T05:23:20.511Z,53.63
2024-03-04T05:24:20.535Z,53.15
2024-03-04T05:25:21.001Z,54.05
2024-03-04T05:26:20.549Z,51.56
2024-03-04T05:27:20.560Z,51.46
2024-03-04T05:28:20.610Z,53.66
2024-03-04T05:29:20.606Z,51.76
2024-03-04T05:30:20.944Z,52.70
2024-03-04T05:31:20.689Z,52.95
2024-03-04T05:32:20.615Z,53.06
2024-03-04T05:33:20.695Z,54.11
2024-03-04T05:34:20.700Z,54.12
2024-03-04T05:35:20.675Z,52.52
2024-03-04T05:36:20.693Z,53.70
2024-03-04T05:37:20.702Z,52.89
2024-03-04T05:38:20.722Z,50.74
2024-03-04T05:39:20.724Z,52.15
2024-03-04T05:40:20.757Z,51.30
2024-03-04T05:41:20.712Z,51.47
2024-03-04T05:42:20.770Z,51.25
2024-03-04T05:43:20.820Z,52.96
2024-03-04T05:44:20.779Z,53.34
2024-03-04T05:45:20.986Z,52.15
2024-03-04T05:46:20.845Z,53.70
2024-03-04T05:47:20.877Z,53.19
2024-03-04T05:48:20.859Z,54.27
2024-03-04T05:49:20.954Z,53.27
2024-03-04T05:50:20.919Z,55.26
2024-03-04T05:51:20.940Z,54.24
2024-03-04T05:52:20.970Z,52.65
2024-03-04T05:53:20.974Z,47.88
2024-03-04T05:54:20.954Z,35.25
2024-03-04T05:55:21.061Z,30.92
2024-03-04T05:56:21.002Z,35.68
2024-03-04T05:57:21.066Z,48.76
2024-03-04T05:58:21.139Z,50.00
2024-03-04T05:59:21.205Z,52.62
2024-03-04T06:00:21.223Z,58.41
2024-03-04T06:01:21.302Z,62.79
2024-03-04T06:02:21.299Z,75.36
2024-03-04T06:03:21.315Z,85.66
2024-03-04T06:04:21.466Z,96.93
2024-03-04T06:05:21.475Z,104.35
2024-03-04T06:06:21.487Z,111.04
2024-03-04T06:07:21.562Z,116.07
2024-03-04T06:08:21.558Z,117.95
2024-03-04T06:09:21.610Z,122.72
2024-03-04T06:10:21.766Z,124.42
2024-03-04T06:11:21.718Z,129.32
2024-03-04T06:12:21.684Z,129.36
2024-03-04T06:13:21.777Z,130.61
2024-03-04T06:14:21.764Z,133.22
2024-03-04T06:15:21.849Z,135.62
2024-03-04T06:16:21.885Z,135.63
2024-03-04T06:17:21.884Z,136.05
2024-03-04T06:18:21.903Z,134.24
2024-03-04T06:19:21.969Z,137.08
2024-03-04T06:20:21.973Z,138.60
2024-03-04T06:21:22.045Z,137.77
2024-03-04T06:22:22.049Z,138.07
2024-03-04T06:23:22.088Z,139.54
2024-03-04T06:24:22.133Z,139.86
2024-03-04T06:25:22.213Z,140.36
2024-03-04T06:26:22.217Z,140.32
2024-03-04T06:27:22.236Z,140.76
2024-03-04T06:28:22.269Z,143.36
2024-03-04T06:29:22.310Z,144.12
2024-03-04T06:30:22.375Z,146.69
2024-03-04T06:31:22.501Z,146.97
2024-03-04T06:32:22.453Z,148.58
2024-03-04T06:33:24.646Z,150.87
2024-03-04T06:34:24.578Z,150.92
2024-03-04T06:35:22.583Z,151.06
2024-03-04T06:36:22.986Z,152.41
2024-03-04T06:37:22.611Z,153.50
2024-03-04T06:38:22.625Z,155.00
2024-03-04T06:39:22.657Z,156.02
2024-03-04T06:40:23.033Z,154.51
2024-03-04T06:41:22.743Z,157.88
2024-03-04T06:42:22.821Z,155.44
2024-03-04T06:43:22.884Z,155.41
2024-03-04T06:44:22.915Z,155.77
2024-03-04T06:45:24.412Z,151.91
2024-03-04T06:46:23.008Z,148.55
2024-03-04T06:47:22.984Z,145.88
2024-03-04T06:48:23.029Z,145.80
2024-03-04T06:49:23.064Z,146.57
2024-03-04T06:50:23.075Z,146.27
2024-03-04T06:51:23.091Z,139.73
2024-03-04T06:52:23.224Z,143.29
2024-03-04T06:53:23.137Z,138.02
2024-03-04T06:54:23.198Z,109.52
2024-03-04T06:55:23.287Z,118.34
2024-03-04T06:56:23.263Z,127.90
2024-03-04T06:57:23.262Z,139.09
2024-03-04T06:58:23.308Z,147.36
2024-03-04T06:59:23.328Z,147.86
2024-03-04T07:00:23.335Z,151.98
2024-03-04T07:01:23.484Z,153.79
2024-03-04T07:02:23.400Z,159.50
2024-03-04T07:03:23.401Z,165.62
2024-03-04T07:04:23.489Z,167.63
2024-03-04T07:05:23.493Z,170.81
2024-03-04T07:06:23.488Z,170.76
2024-03-04T07:07:23.564Z,175.75
2024-03-04T07:08:23.563Z,176.94
2024-03-04T07:09:23.584Z,179.19
2024-03-04T07:10:24.018Z,179.17
2024-03-04T07:11:23.624Z,183.54
2024-03-04T07:12:23.685Z,181.86
2024-03-04T07:13:23.712Z,178.76
2024-03-04T07:14:23.682Z,184.52
2024-03-04T07:15:24.082Z,187.58
2024-03-04T07:16:23.814Z,189.11
2024-03-04T07:17:23.758Z,195.55
2024-03-04T07:18:23.813Z,196.52
2024-03-04T07:19:23.860Z,194.08
2024-03-04T07:20:23.836Z,197.40
2024-03-04T07:21:23.858Z,196.74
2024-03-04T07:22:23.916Z,198.72
2024-03-04T07:23:23.888Z,197.78
2024-03-04T07:24:23.925Z,200.98
2024-03-04T07:25:23.982Z,199.33
2024-03-04T07:26:23.990Z,198.80
2024-03-04T07:27:23.978Z,199.43
2024-03-04T07:28:24.006Z,198.84
2024-03-04T07:29:31.600Z,198.92
2024-03-04T07:30:25.021Z,198.95
2024-03-04T07:31:24.107Z,199.19
2024-03-04T07:32:24.063Z,200.00
2024-03-04T07:33:24.072Z,201.66
2024-03-04T07:34:24.123Z,199.78
2024-03-04T07:35:24.537Z,198.50
2024-03-04T07:36:24.140Z,197.64
2024-03-04T07:37:24.213Z,197.99
2024-03-04T07:38:24.205Z,200.00
2024-03-04T07:39:24.199Z,198.25
2024-03-04T07:40:24.580Z,193.82
2024-03-04T07:41:24.255Z,192.11
2024-03-04T07:42:24.289Z,193.16
2024-03-04T07:43:24.476Z,192.42
2024-03-04T07:44:24.391Z,197.72
2024-03-04T07:45:24.443Z,195.88
2024-03-04T07:46:24.518Z,197.98
2024-03-04T07:47:24.614Z,198.36
2024-03-04T07:48:24.624Z,199.41
2024-03-04T07:49:24.695Z,197.21
2024-03-04T07:50:24.785Z,198.06
2024-03-04T07:51:24.871Z,197.33
2024-03-04T07:52:24.949Z,197.66
2024-03-04T07:53:24.961Z,196.93
2024-03-04T07:54:25.027Z,199.46
2024-03-04T07:55:25.090Z,198.77
2024-03-04T07:56:25.119Z,198.25
2024-03-04T07:57:25.817Z,196.95
2024-03-04T07:58:25.236Z,189.82
2024-03-04T07:59:25.194Z,189.09
2024-03-04T08:00:25.233Z,187.41
2024-03-04T08:01:25.424Z,187.84
2024-03-04T08:02:25.354Z,188.84
2024-03-04T08:03:25.476Z,189.91
2024-03-04T08:04:25.550Z,191.19
2024-03-04T08:05:26.023Z,190.74
2024-03-04T08:06:25.647Z,192.43
2024-03-04T08:07:25.759Z,193.46
2024-03-04T08:08:25.793Z,195.65
2024-03-04T08:09:25.813Z,195.94
2024-03-04T08:10:25.974Z,198.47
2024-03-04T08:11:26.061Z,198.91
2024-03-04T08:12:26.014Z,198.62
2024-03-04T08:13:26.114Z,198.71
2024-03-04T08:14:26.156Z,197.60
2024-03-04T08:15:26.215Z,198.84
2024-03-04T08:16:26.289Z,198.16
2024-03-04T08:17:28.641Z,198.77
2024-03-04T08:18:26.375Z,198.82
2024-03-04T08:19:26.366Z,199.31
2024-03-04T08:20:33.553Z,199.57
2024-03-04T08:21:27.338Z,198.90
2024-03-04T08:22:26.456Z,199.19
2024-03-04T08:23:26.365Z,199.70
2024-03-04T08:24:26.384Z,201.52
2024-03-04T08:25:26.423Z,202.80
2024-03-04T08:26:26.368Z,199.04
2024-03-04T08:27:26.425Z,198.93
2024-03-04T08:28:32.443Z,199.20
2024-03-04T08:29:27.488Z,199.27
2024-03-04T08:30:26.442Z,199.58
2024-03-04T08:31:26.470Z,199.86
2024-03-04T08:32:26.459Z,200.95
2024-03-04T08:33:26.448Z,202.54
2024-03-04T08:34:26.480Z,198.66
2024-03-04T08:35:26.547Z,199.13
2024-03-04T08:36:26.496Z,199.48
2024-03-04T08:37:26.536Z,199.67
2024-03-04T08:38:26.549Z,200.00
2024-03-04T08:39:26.509Z,199.01
2024-03-04T08:40:26.574Z,198.98
2024-03-04T08:41:26.564Z,200.00
2024-03-04T08:42:26.576Z,198.95
2024-03-04T08:43:26.611Z,199.44
2024-03-04T08:44:26.591Z,198.13
2024-03-04T08:45:27.021Z,197.40
2024-03-04T08:46:26.610Z,192.03
2024-03-04T08:47:26.625Z,192.95
2024-03-04T08:48:26.591Z,190.72
2024-03-04T08:49:26.664Z,191.04
2024-03-04T08:50:27.052Z,191.62
2024-03-04T08:51:26.779Z,195.03
2024-03-04T08:52:26.884Z,195.83
2024-03-04T08:53:26.892Z,195.24
2024-03-04T08:54:26.965Z,191.65
2024-03-04T08:55:27.147Z,188.86
2024-03-04T08:56:27.027Z,187.53
2024-03-04T08:57:27.051Z,187.00
2024-03-04T08:58:27.173Z,184.12
2024-03-04T08:59:27.137Z,181.25
2024-03-04T09:00:27.163Z,175.45
2024-03-04T09:01:27.380Z,172.52
2024-03-04T09:02:27.288Z,169.86
2024-03-04T09:03:27.269Z,171.10
2024-03-04T09:04:27.319Z,168.10
2024-03-04T09:05:27.653Z,168.56
2024-03-04T09:06:27.385Z,164.32
2024-03-04T09:07:28.054Z,163.04
2024-03-04T09:08:27.466Z,159.49
2024-03-04T09:09:27.462Z,153.93
2024-03-04T09:10:27.596Z,150.89
2024-03-04T09:11:27.577Z,145.97
2024-03-04T09:12:27.591Z,146.01
2024-03-04T09:13:27.731Z,145.33
2024-03-04T09:14:27.651Z,146.10
2024-03-04T09:15:28.054Z,145.31
2024-03-04T09:16:27.768Z,143.62
2024-03-04T09:17:27.775Z,141.57
2024-03-04T09:18:27.805Z,137.86
2024-03-04T09:19:27.881Z,135.58
2024-03-04T09:20:28.055Z,136.92
2024-03-04T09:21:27.880Z,137.93
2024-03-04T09:22:27.978Z,134.75
2024-03-04T09:23:28.000Z,134.93
2024-03-04T09:24:28.021Z,132.56
2024-03-04T09:25:28.128Z,130.73
2024-03-04T09:26:28.131Z,130.30
2024-03-04T09:27:28.184Z,130.47
2024-03-04T09:28:28.203Z,127.24
2024-03-04T09:29:28.256Z,121.74
2024-03-04T09:30:28.578Z,121.47
2024-03-04T09:31:28.357Z,123.19
2024-03-04T09:32:28.445Z,122.92
2024-03-04T09:33:28.410Z,124.08
2024-03-04T09:34:28.531Z,122.43
2024-03-04T09:35:28.656Z,120.68
2024-03-04T09:36:28.529Z,118.92
2024-03-04T09:37:28.639Z,118.50
2024-03-04T09:38:28.648Z,116.04
2024-03-04T09:39:28.641Z,114.60
2024-03-04T09:40:29.131Z,114.59
2024-03-04T09:41:28.712Z,111.68
2024-03-04T09:42:28.721Z,111.14
2024-03-04T09:43:28.818Z,107.62
2024-03-04T09:44:28.995Z,104.07
2024-03-04T09:45:29.105Z,103.56
2024-03-04T09:46:28.926Z,102.64
2024-03-04T09:47:29.451Z,101.50
2024-03-04T09:48:28.987Z,105.64
2024-03-04T09:49:29.004Z,106.18
2024-03-04T09:50:29.024Z,104.02
2024-03-04T09:51:29.065Z,105.15
2024-03-04T09:52:29.131Z,104.40
2024-03-04T09:53:29.149Z,105.93
2024-03-04T09:54:29.209Z,103.78
2024-03-04T09:55:29.591Z,104.74
2024-03-04T09:56:29.272Z,103.75
2024-03-04T09:57:29.356Z,105.07
2024-03-04T09:58:29.360Z,104.03
2024-03-04T09:59:29.405Z,100.98
2024-03-04T10:00:29.593Z,96.80
2024-03-04T10:01:29.573Z,97.21
2024-03-04T10:02:29.537Z,95.64
2024-03-04T10:03:29.626Z,92.45
2024-03-04T10:04:29.673Z,91.23
2024-03-04T10:05:30.120Z,88.16
2024-03-04T10:06:29.728Z,88.84
2024-03-04T10:07:29.832Z,90.35
2024-03-04T10:08:29.833Z,88.79
2024-03-04T10:09:29.889Z,90.02
2024-03-04T10:10:29.978Z,89.51
2024-03-04T10:11:29.973Z,90.38
2024-03-04T10:12:29.994Z,89.07
2024-03-04T10:13:30.092Z,89.40
2024-03-04T10:14:30.072Z,93.50
2024-03-04T10:15:30.578Z,94.88
2024-03-04T10:16:30.235Z,97.50
2024-03-04T10:17:31.076Z,96.62
2024-03-04T10:18:30.250Z,95.18
2024-03-04T10:19:30.302Z,98.48
2024-03-04T10:20:30.549Z,98.78
2024-03-04T10:21:30.374Z,102.85
2024-03-04T10:22:30.478Z,105.16
2024-03-04T10:23:30.497Z,110.33
2024-03-04T10:24:30.498Z,111.34
2024-03-04T10:25:30.549Z,115.32
2024-03-04T10:26:30.627Z,116.47
2024-03-04T10:27:30.666Z,118.81
2024-03-04T10:28:30.757Z,119.82
2024-03-04T10:29:30.825Z,121.78
2024-03-04T10:30:31.082Z,122.47
2024-03-04T10:31:30.965Z,120.37
2024-03-04T10:32:31.045Z,120.59
2024-03-04T10:33:31.164Z,120.88
2024-03-04T10:34:31.228Z,116.92
2024-03-04T10:35:31.239Z,116.30
2024-03-04T10:36:31.258Z,114.72
2024-03-04T10:37:31.366Z,119.71
2024-03-04T10:38:31.571Z,119.42
2024-03-04T10:39:32.438Z,119.58
2024-03-04T10:40:31.619Z,120.19
2024-03-04T10:41:31.448Z,121.93
2024-03-04T10:42:31.468Z,123.96
2024-03-04T10:43:31.561Z,127.03
2024-03-04T10:44:31.524Z,130.21
2024-03-04T10:45:31.549Z,130.18
2024-03-04T10:46:31.593Z,126.96
2024-03-04T10:47:31.558Z,124.02
2024-03-04T10:48:31.597Z,123.96
2024-03-04T10:49:31.708Z,127.69
2024-03-04T10:50:32.436Z,128.43
2024-03-04T10:51:31.764Z,129.58
2024-03-04T10:52:31.816Z,130.79
2024-03-04T10:53:31.882Z,131.16
2024-03-04T10:54:31.902Z,129.62
2024-03-04T10:55:32.309Z,136.58
2024-03-04T10:56:33.030Z,141.83
2024-03-04T10:57:32.078Z,146.37
2024-03-04T10:58:32.140Z,151.76
2024-03-04T10:59:32.183Z,156.03
2024-03-04T11:00:32.588Z,159.78
2024-03-04T11:01:32.336Z,163.47
2024-03-04T11:02:32.259Z,167.63
2024-03-04T11:03:32.297Z,175.69
2024-03-04T11:04:32.383Z,182.90
2024-03-04T11:05:32.380Z,189.02
2024-03-04T11:06:32.393Z,191.09
2024-03-04T11:07:32.447Z,195.45
2024-03-04T11:08:32.426Z,198.05
2024-03-04T11:09:32.459Z,200.00
2024-03-04T11:10:32.626Z,199.62
2024-03-04T11:11:32.575Z,199.42
2024-03-04T11:12:32.570Z,199.64
2024-03-04T11:13:32.628Z,199.16
2024-03-04T11:14:32.617Z,200.00
2024-03-04T11:15:32.612Z,199.05
2024-03-04T11:16:32.738Z,199.61
2024-03-04T11:17:32.774Z,197.42
2024-03-04T11:18:32.718Z,199.77
2024-03-04T11:19:32.766Z,199.27
2024-03-04T11:20:32.740Z,197.11
2024-03-04T11:21:32.764Z,199.22
2024-03-04T11:22:32.794Z,199.48
2024-03-04T11:23:32.773Z,199.28
2024-03-04T11:24:32.803Z,199.05
2024-03-04T11:25:32.902Z,200.14
2024-03-04T11:26:32.796Z,198.18
2024-03-04T11:27:32.828Z,199.97
2024-03-04T11:28:32.909Z,200.00
2024-03-04T11:29:32.896Z,196.91
2024-03-04T11:30:32.896Z,197.86
2024-03-04T11:31:33.006Z,195.47
2024-03-04T11:32:32.953Z,199.75
2024-03-04T11:33:32.958Z,198.58
2024-03-04T11:34:32.965Z,198.77
2024-03-04T11:35:33.004Z,197.34
2024-03-04T11:36:33.018Z,199.66
2024-03-04T11:37:33.070Z,197.05
2024-03-04T11:38:34.017Z,200.64
2024-03-04T11:39:33.071Z,199.13
2024-03-04T11:40:33.118Z,196.92
2024-03-04T11:41:33.091Z,197.18
2024-03-04T11:42:33.125Z,197.11
2024-03-04T11:43:33.171Z,195.49
2024-03-04T11:44:33.150Z,195.19
2024-03-04T11:45:33.188Z,196.41
2024-03-04T11:46:33.279Z,197.89
2024-03-04T11:47:33.248Z,194.69
2024-03-04T11:48:33.221Z,190.00
2024-03-04T11:49:33.257Z,191.66
2024-03-04T11:50:33.616Z,186.34
2024-03-04T11:51:33.282Z,187.93
2024-03-04T11:52:33.303Z,188.42
2024-03-04T11:53:33.297Z,194.65
2024-03-04T11:54:33.345Z,193.07
2024-03-04T11:55:33.381Z,195.42
2024-03-04T11:56:33.372Z,194.38
2024-03-04T11:57:33.369Z,197.67
2024-03-04T11:58:33.440Z,200.12
2024-03-04T11:59:33.482Z,196.31
2024-03-04T12:00:33.624Z,198.94
2024-03-04T12:01:33.621Z,198.34
2024-03-04T12:02:33.674Z,198.55
2024-03-04T12:03:33.706Z,199.39
2024-03-04T12:04:33.801Z,200.00
2024-03-04T12:05:34.126Z,199.35
2024-03-04T12:06:33.830Z,198.17
2024-03-04T12:07:33.942Z,199.07
2024-03-04T12:08:45.621Z,196.21
2024-03-04T12:09:50.174Z,196.28
2024-03-04T12:10:34.964Z,196.42
2024-03-04T12:11:34.206Z,197.30
2024-03-04T12:12:33.912Z,200.01
2024-03-04T12:13:33.950Z,203.15
2024-03-04T12:14:33.924Z,215.10
2024-03-04T12:15:33.905Z,211.48
2024-03-04T12:16:34.264Z,201.81
2024-03-04T12:17:33.920Z,198.52
2024-03-04T12:18:33.950Z,199.18
2024-03-04T12:19:33.930Z,197.82
2024-03-04T12:20:33.938Z,197.72
2024-03-04T12:21:34.136Z,197.75
2024-03-04T12:22:35.247Z,200.00
2024-03-04T12:23:33.859Z,199.63
2024-03-04T12:24:33.840Z,201.27
2024-03-04T12:25:33.931Z,199.63
2024-03-04T12:26:34.154Z,200.00
2024-03-04T12:27:33.822Z,199.66
2024-03-04T12:28:33.835Z,199.48
2024-03-04T12:29:33.817Z,199.19
2024-03-04T12:30:33.875Z,199.28
2024-03-04T12:31:34.180Z,198.96
2024-03-04T12:32:33.840Z,199.77
2024-03-04T12:33:33.749Z,199.16
2024-03-04T12:34:33.725Z,199.39
2024-03-04T12:35:33.761Z,198.74
2024-03-04T12:36:33.733Z,198.14
2024-03-04T12:37:33.855Z,197.67
2024-03-04T12:38:33.699Z,195.19
2024-03-04T12:39:33.697Z,197.01
2024-03-04T12:40:33.763Z,196.41
2024-03-04T12:41:34.707Z,196.57